Dan Jaworski — WDC6534 — position and weather

sailwx.info

Track history (hours):
 
Tides and Currents Weather Stations Pressure Air Temp Water Temp Dewpoint Dewpoint Depression Visibility Wind Speed Wind Dir Waves Ship Positions

Dan Jaworski

Owner: American Commercial Lines LLC, Jeffersonville, IN. More information available from US FCC via Universal Licensing System and Coast Guard Vessel Documentation Center.

Last reported at 2018-Jun-12 05:11 UTC. Time now 2018-Jun-18 17:11 UTC.
Position N 33°04' W 091°10'.

Length 48 m; draft 3.4 m.

Type: Towing. MMSI: 367057610.

Date/timePositionNaut miles runAvg speedWind from/ knotsBaromVisibWave heightAir tempDewpointWater temp
2018-Jun-12 05:11N 33°04' W 091°10'2 5.1
2018-Jun-12 04:46N 33°02' W 091°09'1 4.8
2018-Jun-12 04:28N 33°01' W 091°09'3 4.3
2018-Jun-12 03:43N 32°57' W 091°09'1 4.0
2018-Jun-12 03:24N 32°57' W 091°07'17 2.8
2018-Jun-11 21:21N 32°40' W 091°07'2 4.3
2018-Jun-11 21:00N 32°39' W 091°09'3 5.5
2018-Jun-11 20:31N 32°37' W 091°09'3 5.3
2018-Jun-11 20:01N 32°35' W 091°07'2 4.8
2018-Jun-11 19:30N 32°32' W 091°06'3 5.2
2018-Jun-11 19:01N 32°30' W 091°07'2 4.9
2018-Jun-11 18:31N 32°28' W 091°06'3 5.4
2018-Jun-11 18:00N 32°26' W 091°03'3 5.3
2018-Jun-11 17:31N 32°25' W 091°00'2 4.4
2018-Jun-11 17:01N 32°23' W 090°60'2 4.2
2018-Jun-11 16:31N 32°21' W 090°59'1 3.0
2018-Jun-11 16:01N 32°21' W 090°57'0 0.5
2018-Jun-11 15:30N 32°21' W 090°57'1 2.2
2018-Jun-11 15:00N 32°21' W 090°56'2 4.3
2018-Jun-11 14:30N 32°19' W 090°54'3 5.4
2018-Jun-11 14:01N 32°17' W 090°57'3 5.0
2018-Jun-11 13:31N 32°15' W 090°58'3 5.4
2018-Jun-11 13:01N 32°13' W 090°59'3 4.9
2018-Jun-11 12:30N 32°10' W 090°60'3 5.1
2018-Jun-11 12:01N 32°08' W 091°01'2 4.4
2018-Jun-11 11:30N 32°08' W 091°03'3 5.3
2018-Jun-11 10:59N 32°08' W 091°06'5 4.6
2018-Jun-11 09:57N 32°04' W 091°03'  
2018-Jun-07 20:08N 31°59' W 091°07'1 8.9
2018-Jun-07 20:00N 31°60' W 091°05'6 7.8
2018-Jun-07 19:17N 32°05' W 091°05'2 8.3
2018-Jun-07 18:59N 32°08' W 091°06'4 8.4
2018-Jun-07 18:31N 32°07' W 091°01'5 9.1
2018-Jun-07 18:00N 32°12' W 090°60'4 9.0
2018-Jun-07 17:30N 32°16' W 090°58'5 9.5
2018-Jun-07 17:00N 32°19' W 090°54'4 7.3
2018-Jun-07 16:30N 32°21' W 090°58'3 6.9
2018-Jun-07 16:01N 32°24' W 090°59'4 8.6
2018-Jun-07 15:31N 32°26' W 091°04'4 8.6
2018-Jun-07 15:00N 32°30' W 091°07'4 8.7
2018-Jun-07 14:31N 32°34' W 091°07'4 8.8
2018-Jun-07 14:01N 32°38' W 091°09'4 8.3
2018-Jun-07 13:30N 32°41' W 091°05'4 6.4
2018-Jun-07 12:56N 32°44' W 091°05'4 8.3
2018-Jun-07 12:30N 32°45' W 091°09'  
Track history (hours):
 
Tides and Currents Weather Stations Pressure Air Temp Water Temp Dewpoint Dewpoint Depression Visibility Wind Speed Wind Dir Waves Ship Positions

Dan Jaworski

Owner: American Commercial Lines LLC, Jeffersonville, IN. More information available from US FCC via Universal Licensing System and Coast Guard Vessel Documentation Center.

Last reported at 2018-Jun-12 05:11 UTC. Time now 2018-Jun-18 17:11 UTC.
Position N 33°04' W 091°10'.

Length 48 m; draft 3.4 m.

Type: Towing. MMSI: 367057610.

Date/timePositionNaut miles runAvg speedWind from/ knotsBaromVisibWave heightAir tempDewpointWater temp
2018-Jun-12 05:11N 33°04' W 091°10'2 5.1
2018-Jun-12 04:46N 33°02' W 091°09'1 4.8
2018-Jun-12 04:28N 33°01' W 091°09'3 4.3
2018-Jun-12 03:43N 32°57' W 091°09'1 4.0
2018-Jun-12 03:24N 32°57' W 091°07'17 2.8
2018-Jun-11 21:21N 32°40' W 091°07'2 4.3
2018-Jun-11 21:00N 32°39' W 091°09'3 5.5
2018-Jun-11 20:31N 32°37' W 091°09'3 5.3
2018-Jun-11 20:01N 32°35' W 091°07'2 4.8
2018-Jun-11 19:30N 32°32' W 091°06'3 5.2
2018-Jun-11 19:01N 32°30' W 091°07'2 4.9
2018-Jun-11 18:31N 32°28' W 091°06'3 5.4
2018-Jun-11 18:00N 32°26' W 091°03'3 5.3
2018-Jun-11 17:31N 32°25' W 091°00'2 4.4
2018-Jun-11 17:01N 32°23' W 090°60'2 4.2
2018-Jun-11 16:31N 32°21' W 090°59'1 3.0
2018-Jun-11 16:01N 32°21' W 090°57'0 0.5
2018-Jun-11 15:30N 32°21' W 090°57'1 2.2
2018-Jun-11 15:00N 32°21' W 090°56'2 4.3
2018-Jun-11 14:30N 32°19' W 090°54'3 5.4
2018-Jun-11 14:01N 32°17' W 090°57'3 5.0
2018-Jun-11 13:31N 32°15' W 090°58'3 5.4
2018-Jun-11 13:01N 32°13' W 090°59'3 4.9
2018-Jun-11 12:30N 32°10' W 090°60'3 5.1
2018-Jun-11 12:01N 32°08' W 091°01'2 4.4
2018-Jun-11 11:30N 32°08' W 091°03'3 5.3
2018-Jun-11 10:59N 32°08' W 091°06'5 4.6
2018-Jun-11 09:57N 32°04' W 091°03'  
2018-Jun-07 20:08N 31°59' W 091°07'1 8.9
2018-Jun-07 20:00N 31°60' W 091°05'6 7.8
2018-Jun-07 19:17N 32°05' W 091°05'2 8.3
2018-Jun-07 18:59N 32°08' W 091°06'4 8.4
2018-Jun-07 18:31N 32°07' W 091°01'5 9.1
2018-Jun-07 18:00N 32°12' W 090°60'4 9.0
2018-Jun-07 17:30N 32°16' W 090°58'5 9.5
2018-Jun-07 17:00N 32°19' W 090°54'4 7.3
2018-Jun-07 16:30N 32°21' W 090°58'3 6.9
2018-Jun-07 16:01N 32°24' W 090°59'4 8.6
2018-Jun-07 15:31N 32°26' W 091°04'4 8.6
2018-Jun-07 15:00N 32°30' W 091°07'4 8.7
2018-Jun-07 14:31N 32°34' W 091°07'4 8.8
2018-Jun-07 14:01N 32°38' W 091°09'4 8.3
2018-Jun-07 13:30N 32°41' W 091°05'4 6.4
2018-Jun-07 12:56N 32°44' W 091°05'4 8.3
2018-Jun-07 12:30N 32°45' W 091°09'  

Dump ship's entire track history